Arcadia, Michigan
Current Conditions -  °F | °C
As of 8:55 AM on Friday 24 Oct 2014 (Local Time) from KFKS Reporting Station
Haze Haze  
Wind Chill: 52°   Ceiling: 600
Heat Index: 52°   Visibility: 1.2mi
Dew Point: 49°   Wind: 0mph
Humidity: 90%   Direction: NA
Pressure: 30.01"   Gusts: NA
Location:  44.49°N, 86.23°W
Report Text: KFKS 241255Z AUTO 00000KT 1 1/4SM BR OVC006 11/10 A3001 RMK AO2 T01100095
Loading
Personal Weather Stations






























Interactive Weather Map New forecast layout! Learn more

10-Day Weather Forecast

Advertisements
Track Severe Weather on mobile